Noshiro Maru — JD4183 — position and weather

sailwx.info

Track history (hours):
 
Tides and Currents Weather Stations Pressure Air Temp Water Temp Dewpoint Dewpoint Depression Visibility Wind Speed Wind Dir Waves Ship Positions

Noshiro Maru

Last reported at 2017-Oct-17 20:07 UTC. Time now 2017-Oct-17 20:51 UTC.
Position N 35°17' E 139°41'.

Length 38 m; draft 3 m.

Type: Tug. MMSI: 431009622.

Date/timePositionNaut miles runAvg speedWind from/ knotsBaromVisibWave heightAir tempDewpointWater temp
2017-Oct-17 20:07N 35°17' E 139°41'0 0.0
2017-Oct-17 19:55N 35°17' E 139°41'0 0.0
2017-Oct-17 19:29N 35°17' E 139°41'0 0.0
2017-Oct-17 18:59N 35°17' E 139°41'0 0.0
2017-Oct-17 18:30N 35°17' E 139°41'0 0.0
2017-Oct-17 17:58N 35°17' E 139°41'0 0.0
2017-Oct-17 16:55N 35°17' E 139°41'0 0.0
2017-Oct-17 16:30N 35°17' E 139°41'0 0.0
2017-Oct-17 15:54N 35°17' E 139°41'0 0.0
2017-Oct-17 13:04N 35°17' E 139°41'0 0.0
2017-Oct-17 07:42N 35°17' E 139°41'0 0.0
2017-Oct-17 07:30N 35°17' E 139°41'0 0.0
2017-Oct-17 06:58N 35°17' E 139°41'0 0.0
2017-Oct-17 06:30N 35°17' E 139°41'0 0.0
2017-Oct-17 06:01N 35°17' E 139°41'0 0.0
2017-Oct-17 05:28N 35°17' E 139°41'0 0.0
2017-Oct-17 04:47N 35°17' E 139°41'0 0.0
2017-Oct-17 04:28N 35°17' E 139°41'0 0.0
2017-Oct-17 03:59N 35°17' E 139°41'0 0.0
2017-Oct-17 03:16N 35°17' E 139°41'0 0.0
2017-Oct-17 03:00N 35°17' E 139°41'0 0.0
2017-Oct-17 01:45N 35°17' E 139°41'2 7.1
2017-Oct-17 01:31N 35°19' E 139°41'1 2.8
2017-Oct-17 01:01N 35°19' E 139°39'0 0.6
2017-Oct-17 00:29N 35°19' E 139°39'0 0.9
2017-Oct-17 00:01N 35°19' E 139°39'0 0.0
2017-Oct-16 23:31N 35°19' E 139°39'0 0.9
2017-Oct-16 23:01N 35°19' E 139°39'0 0.0
2017-Oct-16 22:31N 35°19' E 139°39'1 1.7
2017-Oct-16 22:00N 35°19' E 139°41'612.6
2017-Oct-16 21:30N 35°25' E 139°44'3 5.4
2017-Oct-16 21:00N 35°22' E 139°45'511.1
2017-Oct-16 20:30N 35°17' E 139°46'611.3
2017-Oct-16 20:00N 35°11' E 139°47'0 0.1
2017-Oct-16 19:30N 35°11' E 139°47'4 6.9
2017-Oct-16 19:00N 35°13' E 139°43'0 0.0
2017-Oct-16 18:30N 35°13' E 139°43'0 0.0
2017-Oct-16 17:54N 35°13' E 139°43'0 0.0
2017-Oct-16 17:30N 35°13' E 139°43'0 0.0
2017-Oct-16 16:55N 35°13' E 139°43'0 0.0
2017-Oct-16 16:30N 35°13' E 139°43'0 0.0
2017-Oct-16 15:59N 35°13' E 139°43'0 0.0
2017-Oct-16 15:27N 35°13' E 139°43'0 0.0
2017-Oct-16 14:53N 35°13' E 139°43'0 0.0
2017-Oct-16 14:20N 35°13' E 139°43'0 0.0
2017-Oct-16 13:30N 35°13' E 139°43'0 0.0
2017-Oct-16 13:00N 35°13' E 139°43'0 0.0
2017-Oct-16 12:30N 35°13' E 139°43'0 0.0
2017-Oct-16 12:00N 35°13' E 139°43'0 0.0
2017-Oct-16 11:30N 35°13' E 139°43'0 0.0
2017-Oct-16 11:00N 35°13' E 139°43'2 4.7
2017-Oct-16 10:30N 35°12' E 139°46'4 8.0
2017-Oct-16 10:00N 35°17' E 139°45'612.9
2017-Oct-16 09:30N 35°22' E 139°42'1 1.6
2017-Oct-16 09:00N 35°22' E 139°43'5 9.7
2017-Oct-16 08:30N 35°17' E 139°41'1 1.0
2017-Oct-16 07:58N 35°17' E 139°41'0 0.0
2017-Oct-16 07:30N 35°17' E 139°41'0 0.0
2017-Oct-16 06:54N 35°17' E 139°41'0 0.0
2017-Oct-16 06:29N 35°17' E 139°41'2 3.9
2017-Oct-16 06:00N 35°17' E 139°43'5 9.6
2017-Oct-16 05:30N 35°13' E 139°45'3 6.6
2017-Oct-16 05:00N 35°16' E 139°45'612.0
2017-Oct-16 04:30N 35°22' E 139°42'510.6
2017-Oct-16 04:00N 35°25' E 139°48'5 9.2
2017-Oct-16 03:31N 35°21' E 139°49'0 0.3
2017-Oct-16 03:00N 35°21' E 139°49'5 9.6
2017-Oct-16 02:30N 35°24' E 139°45'4 7.2
2017-Oct-16 02:00N 35°27' E 139°42'0 0.0
2017-Oct-16 01:31N 35°27' E 139°42'2 3.5
2017-Oct-16 01:01N 35°26' E 139°44'3 5.4
2017-Oct-16 00:30N 35°24' E 139°46'611.5
2017-Oct-16 00:01N 35°18' E 139°44'611.1
2017-Oct-15 23:30N 35°13' E 139°47'4 7.3
2017-Oct-15 23:00N 35°10' E 139°46'510.6
2017-Oct-15 22:30N 35°15' E 139°46'5 9.1
2017-Oct-15 22:00N 35°17' E 139°41'0 0.0
2017-Oct-15 21:30N 35°17' E 139°41'0 0.0
2017-Oct-15 21:00N 35°17' E 139°41'0 0.0
2017-Oct-15 20:30N 35°17' E 139°41'0 0.0
2017-Oct-15 20:00N 35°17' E 139°41'0 0.0
2017-Oct-15 19:30N 35°17' E 139°41'0 0.0
2017-Oct-15 19:00N 35°17' E 139°41'0 0.0
2017-Oct-15 18:30N 35°17' E 139°41'0 0.0
2017-Oct-15 18:00N 35°17' E 139°41'0 0.0
2017-Oct-15 17:30N 35°17' E 139°41'0 0.0
2017-Oct-15 17:00N 35°17' E 139°41'0 0.0
2017-Oct-15 16:30N 35°17' E 139°41'0 0.0
2017-Oct-15 16:00N 35°17' E 139°41'0 0.0
2017-Oct-15 15:30N 35°17' E 139°41'0 0.0
2017-Oct-15 15:00N 35°17' E 139°41'0 0.0
2017-Oct-15 14:00N 35°17' E 139°41'0 0.0
2017-Oct-15 13:30N 35°17' E 139°41'0 0.0
2017-Oct-15 13:00N 35°17' E 139°41'0 0.0
2017-Oct-15 12:30N 35°17' E 139°41'0 0.0
2017-Oct-15 12:00N 35°17' E 139°41'0 0.0
2017-Oct-15 11:30N 35°17' E 139°41'0 0.0
2017-Oct-15 11:00N 35°17' E 139°41'0 0.0
2017-Oct-15 10:30N 35°17' E 139°41'0 0.0
2017-Oct-15 10:00N 35°17' E 139°41'0 0.0
2017-Oct-15 09:30N 35°17' E 139°41'0 0.0
2017-Oct-15 09:00N 35°17' E 139°41'0 0.0
2017-Oct-15 08:30N 35°17' E 139°41'0 0.0
2017-Oct-15 08:00N 35°17' E 139°41'0 0.0
2017-Oct-15 07:30N 35°17' E 139°41'0 0.0
2017-Oct-15 07:00N 35°17' E 139°41'0 0.0
2017-Oct-15 06:30N 35°17' E 139°41'0 0.0
2017-Oct-15 06:00N 35°17' E 139°41'0 0.0
2017-Oct-15 05:30N 35°17' E 139°41'0 0.0
2017-Oct-15 05:00N 35°17' E 139°41'0 0.0
2017-Oct-15 04:30N 35°17' E 139°41'0 0.0
2017-Oct-15 04:00N 35°17' E 139°41'0 0.0
2017-Oct-15 03:30N 35°17' E 139°41'3 5.6
2017-Oct-15 03:00N 35°17' E 139°44'510.2
2017-Oct-15 02:30N 35°12' E 139°46'510.8
2017-Oct-15 02:00N 35°17' E 139°45'612.3
2017-Oct-15 01:30N 35°23' E 139°43'5 9.2
2017-Oct-15 01:00N 35°28' E 139°45'0 0.7
2017-Oct-15 00:30N 35°28' E 139°44'1 2.5
2017-Oct-15 00:00N 35°27' E 139°43'5 9.3
2017-Oct-14 23:30N 35°23' E 139°39'1 2.5
2017-Oct-14 23:00N 35°23' E 139°41'0 0.6
2017-Oct-14 22:31N 35°22' E 139°41'0 0.8
2017-Oct-14 22:00N 35°22' E 139°41'611.4
2017-Oct-14 21:31N 35°17' E 139°45'611.4
2017-Oct-14 21:00N 35°12' E 139°47'1 2.2
2017-Oct-14 20:30N 35°11' E 139°47'510.3
2017-Oct-14 20:00N 35°16' E 139°45'4 8.4
2017-Oct-14 19:30N 35°17' E 139°41'0 0.2
2017-Oct-14 19:00N 35°17' E 139°41'0 0.0
2017-Oct-14 18:30N 35°17' E 139°41'0 0.0
2017-Oct-14 18:00N 35°17' E 139°41'0 0.0
2017-Oct-14 17:30N 35°17' E 139°41'0 0.0
2017-Oct-14 17:00N 35°17' E 139°41'0 0.0
2017-Oct-14 16:30N 35°17' E 139°41'0 0.0
2017-Oct-14 16:00N 35°17' E 139°41'0 0.0
2017-Oct-14 15:30N 35°17' E 139°41'0 0.0
2017-Oct-14 14:59N 35°17' E 139°41'0 0.0
2017-Oct-14 14:30N 35°17' E 139°41'0 0.0
2017-Oct-14 13:57N 35°17' E 139°41'0 0.0
2017-Oct-14 13:30N 35°17' E 139°41'0 0.0
2017-Oct-14 13:00N 35°17' E 139°41'0 0.0
2017-Oct-14 12:30N 35°17' E 139°41'0 0.0
2017-Oct-14 12:00N 35°17' E 139°41'0 0.0
2017-Oct-14 11:30N 35°17' E 139°41'0 0.0
2017-Oct-14 11:00N 35°17' E 139°41'0 0.0
2017-Oct-14 10:28N 35°17' E 139°41'0 0.0
2017-Oct-14 09:54N 35°17' E 139°41'0 0.0
2017-Oct-14 09:26N 35°17' E 139°41'0 0.0
2017-Oct-14 08:59N 35°17' E 139°41'0 0.0
2017-Oct-14 08:30N 35°17' E 139°41'0 0.5
2017-Oct-14 08:01N 35°17' E 139°41'510.7
2017-Oct-14 07:30N 35°22' E 139°42'611.6
2017-Oct-14 07:00N 35°27' E 139°47'911.3
2017-Oct-14 06:13N 35°32' E 139°55'9 8.5
2017-Oct-14 05:08N 35°25' E 139°48'212.1
2017-Oct-14 05:00N 35°24' E 139°46'611.5
2017-Oct-14 04:31N 35°19' E 139°44'611.3
2017-Oct-14 04:00N 35°14' E 139°47'2 3.1
2017-Oct-14 03:31N 35°12' E 139°46'611.4
2017-Oct-14 03:01N 35°17' E 139°43'2 4.3
2017-Oct-14 02:30N 35°17' E 139°41'0 0.0
2017-Oct-14 02:01N 35°17' E 139°41'0 0.0
2017-Oct-14 01:30N 35°17' E 139°41'4 8.6
2017-Oct-14 01:01N 35°21' E 139°41'3 5.8
2017-Oct-14 00:30N 35°24' E 139°38'0 0.2
2017-Oct-14 00:00N 35°24' E 139°38'1 1.7
2017-Oct-13 23:30N 35°24' E 139°39'2 3.3
2017-Oct-13 23:00N 35°23' E 139°41'2 3.5
2017-Oct-13 22:30N 35°21' E 139°41'4 7.9
2017-Oct-13 22:00N 35°17' E 139°41'0 0.0
2017-Oct-13 21:30N 35°17' E 139°41'0 0.0
2017-Oct-13 21:00N 35°17' E 139°41'0 0.0
2017-Oct-13 20:30N 35°17' E 139°41'0 0.0
2017-Oct-13 20:00N 35°17' E 139°41'0 0.0
2017-Oct-13 19:30N 35°17' E 139°41'0 0.0
2017-Oct-13 19:00N 35°17' E 139°41'0 0.0
2017-Oct-13 18:30N 35°17' E 139°41'0 0.0
2017-Oct-13 18:00N 35°17' E 139°41'0 0.0
2017-Oct-13 17:30N 35°17' E 139°41'0 0.0
2017-Oct-13 17:00N 35°17' E 139°41'0 0.0
2017-Oct-13 16:30N 35°17' E 139°41'0 0.0
2017-Oct-13 16:00N 35°17' E 139°41'0 0.0
2017-Oct-13 15:30N 35°17' E 139°41'0 0.0
2017-Oct-13 15:00N 35°17' E 139°41'0 0.1
2017-Oct-13 14:30N 35°17' E 139°41'0 0.1
2017-Oct-13 14:00N 35°17' E 139°41'0 0.0
2017-Oct-13 13:30N 35°17' E 139°41'0 0.0
2017-Oct-13 13:00N 35°17' E 139°41'0 0.0
2017-Oct-13 12:30N 35°17' E 139°41'0 0.0
2017-Oct-13 12:00N 35°17' E 139°41'0 0.0
2017-Oct-13 11:30N 35°17' E 139°41'0 0.0
2017-Oct-13 11:00N 35°17' E 139°41'0 0.0
2017-Oct-13 10:30N 35°17' E 139°41'0 0.0
2017-Oct-13 10:00N 35°17' E 139°41'0 0.0
2017-Oct-13 09:30N 35°17' E 139°41'0 0.0
2017-Oct-13 09:00N 35°17' E 139°41'0 0.0
2017-Oct-13 08:30N 35°17' E 139°41'0 0.0
2017-Oct-13 08:00N 35°17' E 139°41'0 0.0
2017-Oct-13 07:30N 35°17' E 139°41'0 0.0
2017-Oct-13 07:00N 35°17' E 139°41'0 0.0
2017-Oct-13 06:30N 35°17' E 139°41'0 0.0
2017-Oct-13 06:00N 35°17' E 139°41'0 0.0
2017-Oct-13 05:30N 35°17' E 139°41'0 0.0
2017-Oct-13 05:00N 35°17' E 139°41'0 0.0
2017-Oct-13 04:30N 35°17' E 139°41'0 0.0
2017-Oct-13 04:00N 35°17' E 139°41'0 0.0
2017-Oct-13 03:30N 35°17' E 139°41'0 0.0
2017-Oct-13 03:00N 35°17' E 139°41'0 0.0
2017-Oct-13 02:30N 35°17' E 139°41'0 0.0
2017-Oct-13 02:00N 35°17' E 139°41'0 0.1
2017-Oct-13 01:30N 35°17' E 139°41'0 0.0
2017-Oct-13 01:00N 35°17' E 139°41'0 0.0
2017-Oct-13 00:30N 35°17' E 139°41'0 0.0
2017-Oct-12 23:59N 35°17' E 139°41'0 0.0
2017-Oct-12 23:30N 35°17' E 139°41'0 0.0
2017-Oct-12 23:00N 35°17' E 139°41'0 0.0
2017-Oct-12 22:30N 35°17' E 139°41'0 0.0
2017-Oct-12 22:00N 35°17' E 139°41'0 0.0
2017-Oct-12 21:30N 35°17' E 139°41'0 0.0
2017-Oct-12 21:00N 35°17' E 139°41'0 0.0
2017-Oct-12 20:30N 35°17' E 139°41'0 0.0
2017-Oct-12 20:00N 35°17' E 139°41'0 0.0
2017-Oct-12 19:30N 35°17' E 139°41'0 0.0
2017-Oct-12 19:00N 35°17' E 139°41'0 0.0
2017-Oct-12 18:30N 35°17' E 139°41'0 0.0
2017-Oct-12 18:00N 35°17' E 139°41'0 0.0
2017-Oct-12 17:30N 35°17' E 139°41'0 0.0
2017-Oct-12 17:00N 35°17' E 139°41'0 0.0
2017-Oct-12 16:30N 35°17' E 139°41'0 0.0
2017-Oct-12 16:00N 35°17' E 139°41'0 0.0
2017-Oct-12 15:30N 35°17' E 139°41'0 0.0
2017-Oct-12 15:00N 35°17' E 139°41'0 0.0
2017-Oct-12 14:30N 35°17' E 139°41'0 0.0
2017-Oct-12 14:00N 35°17' E 139°41'0 0.0
2017-Oct-12 13:30N 35°17' E 139°41'0 0.0
2017-Oct-12 13:00N 35°17' E 139°41'0 0.0
2017-Oct-12 12:30N 35°17' E 139°41'0 0.0
2017-Oct-12 12:00N 35°17' E 139°41'0 0.0
2017-Oct-12 11:30N 35°17' E 139°41'0 0.0
2017-Oct-12 11:00N 35°17' E 139°41'0 0.1
2017-Oct-12 10:30N 35°17' E 139°41'0 0.1
2017-Oct-12 10:00N 35°17' E 139°41'0 0.1
2017-Oct-12 09:30N 35°17' E 139°41'0 0.1
2017-Oct-12 09:00N 35°17' E 139°41'0 0.0
2017-Oct-12 08:30N 35°17' E 139°41'0 0.0
2017-Oct-12 08:00N 35°17' E 139°41'0 0.0
2017-Oct-12 07:30N 35°17' E 139°41'0 0.0
2017-Oct-12 07:00N 35°17' E 139°41'0 0.0
2017-Oct-12 06:30N 35°17' E 139°41'0 0.1
2017-Oct-12 06:00N 35°17' E 139°41'0 0.1
2017-Oct-12 05:30N 35°17' E 139°41'0 0.0
2017-Oct-12 05:00N 35°17' E 139°41'0 0.0
2017-Oct-12 04:30N 35°17' E 139°41'0 0.0
2017-Oct-12 04:00N 35°17' E 139°41'0 0.0
2017-Oct-12 03:30N 35°17' E 139°41'0 0.0
2017-Oct-12 03:00N 35°17' E 139°41'0 0.0
2017-Oct-12 02:30N 35°17' E 139°41'3 5.8
2017-Oct-12 02:00N 35°17' E 139°44'510.2
2017-Oct-12 01:30N 35°12' E 139°46'611.3
2017-Oct-12 01:00N 35°18' E 139°44'611.4
2017-Oct-12 00:30N 35°23' E 139°43'5 1.5
2017-Oct-11 20:50N 35°24' E 139°49'3 8.2
2017-Oct-11 20:30N 35°23' E 139°46'611.1
2017-Oct-11 19:59N 35°18' E 139°45'511.1
2017-Oct-11 19:30N 35°13' E 139°47'2 3.6
2017-Oct-11 19:00N 35°11' E 139°47'4 8.1
2017-Oct-11 18:30N 35°13' E 139°43'0 0.0
2017-Oct-11 17:59N 35°13' E 139°43'0 0.0
2017-Oct-11 17:30N 35°13' E 139°43'0 0.0
2017-Oct-11 17:00N 35°13' E 139°43'4 0.2
2017-Oct-10 23:55N 35°17' E 139°41'0 0.0
2017-Oct-10 23:26N 35°17' E 139°41'0 0.0
2017-Oct-10 22:55N 35°17' E 139°41'0 0.0
2017-Oct-10 22:25N 35°17' E 139°41'0 0.0
2017-Oct-10 22:00N 35°17' E 139°41'0 0.0
2017-Oct-10 21:30N 35°17' E 139°41'0 0.0
2017-Oct-10 21:00N 35°17' E 139°41'0 0.0
2017-Oct-10 20:30N 35°17' E 139°41'0 0.0
2017-Oct-10 19:57N 35°17' E 139°41'0 0.0
2017-Oct-10 19:28N 35°17' E 139°41'0 0.0
2017-Oct-10 18:59N 35°17' E 139°41'0 0.0
2017-Oct-10 18:30N 35°17' E 139°41'0 0.0
2017-Oct-10 17:53N 35°17' E 139°41'0 0.0
2017-Oct-10 17:28N 35°17' E 139°41'0 0.0
2017-Oct-10 17:00N 35°17' E 139°41'0 0.0
2017-Oct-10 16:29N 35°17' E 139°41'0 0.0
2017-Oct-10 16:01N 35°17' E 139°41'0 0.0
2017-Oct-10 15:30N 35°17' E 139°41'0 0.0
2017-Oct-10 15:01N 35°17' E 139°41'0 0.0
2017-Oct-10 14:01N 35°17' E 139°41'0 0.0
2017-Oct-10 13:31N 35°17' E 139°41'0 0.0
2017-Oct-10 13:01N 35°17' E 139°41'0 0.0
2017-Oct-10 12:31N 35°17' E 139°41'0 0.0
2017-Oct-10 12:01N 35°17' E 139°41'0 0.0
2017-Oct-10 11:31N 35°17' E 139°41'0 0.0
2017-Oct-10 10:59N 35°17' E 139°41'0 0.0
2017-Oct-10 10:31N 35°17' E 139°41'0 0.0
2017-Oct-10 10:00N 35°17' E 139°41'0 0.0
2017-Oct-10 09:30N 35°17' E 139°41'0 0.0
2017-Oct-10 08:59N 35°17' E 139°41'0 0.0
2017-Oct-10 08:30N 35°17' E 139°41'0 0.0
2017-Oct-10 08:01N 35°17' E 139°41'0 0.0
2017-Oct-10 07:29N 35°17' E 139°41'0 0.0
2017-Oct-10 07:01N 35°17' E 139°41'0 0.0
2017-Oct-10 06:31N 35°17' E 139°41'0 0.0
2017-Oct-10 06:01N 35°17' E 139°41'0 0.0
2017-Oct-10 05:31N 35°17' E 139°41'0 0.0
2017-Oct-10 05:00N 35°17' E 139°41'0 0.0
2017-Oct-10 04:31N 35°17' E 139°41'0 0.0
2017-Oct-10 04:01N 35°17' E 139°41'0 0.0
2017-Oct-10 03:31N 35°17' E 139°41'0 0.0
2017-Oct-10 03:01N 35°17' E 139°41'0 0.0
2017-Oct-10 02:31N 35°17' E 139°41'0 0.0
2017-Oct-10 02:01N 35°17' E 139°41'0 0.0
2017-Oct-10 01:31N 35°17' E 139°41'0 0.0
2017-Oct-10 01:01N 35°17' E 139°41'0 0.0
2017-Oct-10 00:31N 35°17' E 139°41'0 0.0
2017-Oct-10 00:01N 35°17' E 139°41'0 0.0
2017-Oct-09 23:31N 35°17' E 139°41'2 3.4
2017-Oct-09 23:01N 35°19' E 139°40'0 0.7
2017-Oct-09 22:31N 35°19' E 139°39'2 4.9
2017-Oct-09 22:00N 35°19' E 139°42'2 3.1
2017-Oct-09 21:30N 35°20' E 139°42'611.1
2017-Oct-09 20:59N 35°25' E 139°46'611.6
2017-Oct-09 20:31N 35°20' E 139°44'612.0
2017-Oct-09 20:00N 35°14' E 139°47'4 7.7
2017-Oct-09 19:30N 35°10' E 139°47'4 7.8
2017-Oct-09 19:00N 35°13' E 139°44'1 1.7
2017-Oct-09 18:30N 35°13' E 139°43'0 0.0
2017-Oct-09 18:00N 35°13' E 139°43'0 0.0
2017-Oct-09 17:30N 35°13' E 139°43'0 0.0
2017-Oct-09 17:00N 35°13' E 139°43'0 0.0
2017-Oct-09 16:30N 35°13' E 139°43'0 0.0
2017-Oct-09 16:00N 35°13' E 139°43'0 0.0
2017-Oct-09 15:30N 35°13' E 139°43'0 0.0
2017-Oct-09 15:00N 35°13' E 139°43'0 0.0
2017-Oct-09 14:30N 35°13' E 139°43'0 0.0
2017-Oct-09 14:00N 35°13' E 139°43'0 0.0
2017-Oct-09 13:30N 35°13' E 139°43'0 0.0
2017-Oct-09 13:00N 35°13' E 139°43'3 5.7
2017-Oct-09 12:30N 35°14' E 139°46'612.9
2017-Oct-09 12:00N 35°20' E 139°43'3 4.3
2017-Oct-09 11:19N 35°23' E 139°43'310.7
2017-Oct-09 11:00N 35°19' E 139°42'3 1.1
2017-Oct-09 08:42N 35°17' E 139°41'311.6
2017-Oct-09 08:27N 35°17' E 139°44'4 9.8
2017-Oct-09 08:00N 35°13' E 139°46'612.0
2017-Oct-09 07:30N 35°18' E 139°44'6 1.8
2017-Oct-09 04:08N 35°24' E 139°48'213.0
2017-Oct-09 03:58N 35°22' E 139°46'510.0
2017-Oct-09 03:31N 35°18' E 139°43'2 0.5
2017-Oct-08 23:14N 35°17' E 139°41'0 0.0
2017-Oct-08 21:00N 35°17' E 139°41'0 0.0
2017-Oct-08 20:30N 35°17' E 139°41'0 0.0
2017-Oct-08 20:00N 35°17' E 139°41'0 0.0
2017-Oct-08 19:30N 35°17' E 139°41'0 0.0
2017-Oct-08 19:00N 35°17' E 139°41'0 0.0
2017-Oct-08 18:30N 35°17' E 139°41'0 0.0
2017-Oct-08 18:00N 35°17' E 139°41'0 0.0
2017-Oct-08 17:30N 35°17' E 139°41'0 0.0
2017-Oct-08 17:00N 35°17' E 139°41'0 0.0
2017-Oct-08 16:30N 35°17' E 139°41'0 0.0
2017-Oct-08 16:00N 35°17' E 139°41'0 0.0
2017-Oct-08 15:30N 35°17' E 139°41'0 0.0
2017-Oct-08 15:00N 35°17' E 139°41'0 0.0
2017-Oct-08 14:30N 35°17' E 139°41'0 0.0
2017-Oct-08 14:00N 35°17' E 139°41'0 0.0
2017-Oct-08 13:30N 35°17' E 139°41'0 0.0
2017-Oct-08 13:00N 35°17' E 139°41'0 0.0
2017-Oct-08 12:30N 35°17' E 139°41'0 0.0
2017-Oct-08 12:00N 35°17' E 139°41'0 0.0
2017-Oct-08 11:30N 35°17' E 139°41'0 0.0
2017-Oct-08 11:00N 35°17' E 139°41'0 0.0
2017-Oct-08 10:30N 35°17' E 139°41'0 0.0
2017-Oct-08 10:00N 35°17' E 139°41'0 0.0
2017-Oct-08 09:30N 35°17' E 139°41'0 0.0
2017-Oct-08 09:00N 35°17' E 139°41'0 0.0
2017-Oct-08 08:30N 35°17' E 139°41'0 0.0
2017-Oct-08 08:00N 35°17' E 139°41'0 0.0
2017-Oct-08 07:30N 35°17' E 139°41'0 0.1
2017-Oct-08 07:00N 35°17' E 139°41'0 0.1
2017-Oct-08 06:30N 35°17' E 139°41'0 0.1
2017-Oct-08 06:00N 35°17' E 139°41'0 0.1
2017-Oct-08 05:30N 35°17' E 139°41'0 0.0
2017-Oct-08 05:00N 35°17' E 139°41'0 0.0
2017-Oct-08 04:30N 35°17' E 139°41'1 2.4
2017-Oct-08 04:01N 35°18' E 139°42'510.5
2017-Oct-08 03:30N 35°13' E 139°46'3 6.8
2017-Oct-08 03:00N 35°17' E 139°45'612.3
2017-Oct-08 02:30N 35°22' E 139°42'713.6
2017-Oct-08 02:00N 35°27' E 139°48'2 0.6
2017-Oct-07 23:07N 35°26' E 139°48'1 8.9
2017-Oct-07 22:59N 35°25' E 139°47'1 2.4
2017-Oct-07 22:30N 35°25' E 139°45'4 8.8
2017-Oct-07 22:00N 35°21' E 139°45'612.0
2017-Oct-07 21:29N 35°15' E 139°47'510.5
2017-Oct-07 21:00N 35°10' E 139°47'0 0.4
2017-Oct-07 20:30N 35°10' E 139°47'  
Track history (hours):
 
Tides and Currents Weather Stations Pressure Air Temp Water Temp Dewpoint Dewpoint Depression Visibility Wind Speed Wind Dir Waves Ship Positions

Noshiro Maru

Last reported at 2017-Oct-17 20:07 UTC. Time now 2017-Oct-17 20:51 UTC.
Position N 35°17' E 139°41'.

Length 38 m; draft 3 m.

Type: Tug. MMSI: 431009622.

Date/timePositionNaut miles runAvg speedWind from/ knotsBaromVisibWave heightAir tempDewpointWater temp
2017-Oct-17 20:07N 35°17' E 139°41'0 0.0
2017-Oct-17 19:55N 35°17' E 139°41'0 0.0
2017-Oct-17 19:29N 35°17' E 139°41'0 0.0
2017-Oct-17 18:59N 35°17' E 139°41'0 0.0
2017-Oct-17 18:30N 35°17' E 139°41'0 0.0
2017-Oct-17 17:58N 35°17' E 139°41'0 0.0
2017-Oct-17 16:55N 35°17' E 139°41'0 0.0
2017-Oct-17 16:30N 35°17' E 139°41'0 0.0
2017-Oct-17 15:54N 35°17' E 139°41'0 0.0
2017-Oct-17 13:04N 35°17' E 139°41'0 0.0
2017-Oct-17 07:42N 35°17' E 139°41'0 0.0
2017-Oct-17 07:30N 35°17' E 139°41'0 0.0
2017-Oct-17 06:58N 35°17' E 139°41'0 0.0
2017-Oct-17 06:30N 35°17' E 139°41'0 0.0
2017-Oct-17 06:01N 35°17' E 139°41'0 0.0
2017-Oct-17 05:28N 35°17' E 139°41'0 0.0
2017-Oct-17 04:47N 35°17' E 139°41'0 0.0
2017-Oct-17 04:28N 35°17' E 139°41'0 0.0
2017-Oct-17 03:59N 35°17' E 139°41'0 0.0
2017-Oct-17 03:16N 35°17' E 139°41'0 0.0
2017-Oct-17 03:00N 35°17' E 139°41'0 0.0
2017-Oct-17 01:45N 35°17' E 139°41'2 7.1
2017-Oct-17 01:31N 35°19' E 139°41'1 2.8
2017-Oct-17 01:01N 35°19' E 139°39'0 0.6
2017-Oct-17 00:29N 35°19' E 139°39'0 0.9
2017-Oct-17 00:01N 35°19' E 139°39'0 0.0
2017-Oct-16 23:31N 35°19' E 139°39'0 0.9
2017-Oct-16 23:01N 35°19' E 139°39'0 0.0
2017-Oct-16 22:31N 35°19' E 139°39'1 1.7
2017-Oct-16 22:00N 35°19' E 139°41'612.6
2017-Oct-16 21:30N 35°25' E 139°44'3 5.4
2017-Oct-16 21:00N 35°22' E 139°45'511.1
2017-Oct-16 20:30N 35°17' E 139°46'611.3
2017-Oct-16 20:00N 35°11' E 139°47'0 0.1
2017-Oct-16 19:30N 35°11' E 139°47'4 6.9
2017-Oct-16 19:00N 35°13' E 139°43'0 0.0
2017-Oct-16 18:30N 35°13' E 139°43'0 0.0
2017-Oct-16 17:54N 35°13' E 139°43'0 0.0
2017-Oct-16 17:30N 35°13' E 139°43'0 0.0
2017-Oct-16 16:55N 35°13' E 139°43'0 0.0
2017-Oct-16 16:30N 35°13' E 139°43'0 0.0
2017-Oct-16 15:59N 35°13' E 139°43'0 0.0
2017-Oct-16 15:27N 35°13' E 139°43'0 0.0
2017-Oct-16 14:53N 35°13' E 139°43'0 0.0
2017-Oct-16 14:20N 35°13' E 139°43'0 0.0
2017-Oct-16 13:30N 35°13' E 139°43'0 0.0
2017-Oct-16 13:00N 35°13' E 139°43'0 0.0
2017-Oct-16 12:30N 35°13' E 139°43'0 0.0
2017-Oct-16 12:00N 35°13' E 139°43'0 0.0
2017-Oct-16 11:30N 35°13' E 139°43'0 0.0
2017-Oct-16 11:00N 35°13' E 139°43'2 4.7
2017-Oct-16 10:30N 35°12' E 139°46'4 8.0
2017-Oct-16 10:00N 35°17' E 139°45'612.9
2017-Oct-16 09:30N 35°22' E 139°42'1 1.6
2017-Oct-16 09:00N 35°22' E 139°43'5 9.7
2017-Oct-16 08:30N 35°17' E 139°41'1 1.0
2017-Oct-16 07:58N 35°17' E 139°41'0 0.0
2017-Oct-16 07:30N 35°17' E 139°41'0 0.0
2017-Oct-16 06:54N 35°17' E 139°41'0 0.0
2017-Oct-16 06:29N 35°17' E 139°41'2 3.9
2017-Oct-16 06:00N 35°17' E 139°43'5 9.6
2017-Oct-16 05:30N 35°13' E 139°45'3 6.6
2017-Oct-16 05:00N 35°16' E 139°45'612.0
2017-Oct-16 04:30N 35°22' E 139°42'510.6
2017-Oct-16 04:00N 35°25' E 139°48'5 9.2
2017-Oct-16 03:31N 35°21' E 139°49'0 0.3
2017-Oct-16 03:00N 35°21' E 139°49'5 9.6
2017-Oct-16 02:30N 35°24' E 139°45'4 7.2
2017-Oct-16 02:00N 35°27' E 139°42'0 0.0
2017-Oct-16 01:31N 35°27' E 139°42'2 3.5
2017-Oct-16 01:01N 35°26' E 139°44'3 5.4
2017-Oct-16 00:30N 35°24' E 139°46'611.5
2017-Oct-16 00:01N 35°18' E 139°44'611.1
2017-Oct-15 23:30N 35°13' E 139°47'4 7.3
2017-Oct-15 23:00N 35°10' E 139°46'510.6
2017-Oct-15 22:30N 35°15' E 139°46'5 9.1
2017-Oct-15 22:00N 35°17' E 139°41'0 0.0
2017-Oct-15 21:30N 35°17' E 139°41'0 0.0
2017-Oct-15 21:00N 35°17' E 139°41'0 0.0
2017-Oct-15 20:30N 35°17' E 139°41'0 0.0
2017-Oct-15 20:00N 35°17' E 139°41'0 0.0
2017-Oct-15 19:30N 35°17' E 139°41'0 0.0
2017-Oct-15 19:00N 35°17' E 139°41'0 0.0
2017-Oct-15 18:30N 35°17' E 139°41'0 0.0
2017-Oct-15 18:00N 35°17' E 139°41'0 0.0
2017-Oct-15 17:30N 35°17' E 139°41'0 0.0
2017-Oct-15 17:00N 35°17' E 139°41'0 0.0
2017-Oct-15 16:30N 35°17' E 139°41'0 0.0
2017-Oct-15 16:00N 35°17' E 139°41'0 0.0
2017-Oct-15 15:30N 35°17' E 139°41'0 0.0
2017-Oct-15 15:00N 35°17' E 139°41'0 0.0
2017-Oct-15 14:00N 35°17' E 139°41'0 0.0
2017-Oct-15 13:30N 35°17' E 139°41'0 0.0
2017-Oct-15 13:00N 35°17' E 139°41'0 0.0
2017-Oct-15 12:30N 35°17' E 139°41'0 0.0
2017-Oct-15 12:00N 35°17' E 139°41'0 0.0
2017-Oct-15 11:30N 35°17' E 139°41'0 0.0
2017-Oct-15 11:00N 35°17' E 139°41'0 0.0
2017-Oct-15 10:30N 35°17' E 139°41'0 0.0
2017-Oct-15 10:00N 35°17' E 139°41'0 0.0
2017-Oct-15 09:30N 35°17' E 139°41'0 0.0
2017-Oct-15 09:00N 35°17' E 139°41'0 0.0
2017-Oct-15 08:30N 35°17' E 139°41'0 0.0
2017-Oct-15 08:00N 35°17' E 139°41'0 0.0
2017-Oct-15 07:30N 35°17' E 139°41'0 0.0
2017-Oct-15 07:00N 35°17' E 139°41'0 0.0
2017-Oct-15 06:30N 35°17' E 139°41'0 0.0
2017-Oct-15 06:00N 35°17' E 139°41'0 0.0
2017-Oct-15 05:30N 35°17' E 139°41'0 0.0
2017-Oct-15 05:00N 35°17' E 139°41'0 0.0
2017-Oct-15 04:30N 35°17' E 139°41'0 0.0
2017-Oct-15 04:00N 35°17' E 139°41'0 0.0
2017-Oct-15 03:30N 35°17' E 139°41'3 5.6
2017-Oct-15 03:00N 35°17' E 139°44'510.2
2017-Oct-15 02:30N 35°12' E 139°46'510.8
2017-Oct-15 02:00N 35°17' E 139°45'612.3
2017-Oct-15 01:30N 35°23' E 139°43'5 9.2
2017-Oct-15 01:00N 35°28' E 139°45'0 0.7
2017-Oct-15 00:30N 35°28' E 139°44'1 2.5
2017-Oct-15 00:00N 35°27' E 139°43'5 9.3
2017-Oct-14 23:30N 35°23' E 139°39'1 2.5
2017-Oct-14 23:00N 35°23' E 139°41'0 0.6
2017-Oct-14 22:31N 35°22' E 139°41'0 0.8
2017-Oct-14 22:00N 35°22' E 139°41'611.4
2017-Oct-14 21:31N 35°17' E 139°45'611.4
2017-Oct-14 21:00N 35°12' E 139°47'1 2.2
2017-Oct-14 20:30N 35°11' E 139°47'510.3
2017-Oct-14 20:00N 35°16' E 139°45'4 8.4
2017-Oct-14 19:30N 35°17' E 139°41'0 0.2
2017-Oct-14 19:00N 35°17' E 139°41'0 0.0
2017-Oct-14 18:30N 35°17' E 139°41'0 0.0
2017-Oct-14 18:00N 35°17' E 139°41'0 0.0
2017-Oct-14 17:30N 35°17' E 139°41'0 0.0
2017-Oct-14 17:00N 35°17' E 139°41'0 0.0
2017-Oct-14 16:30N 35°17' E 139°41'0 0.0
2017-Oct-14 16:00N 35°17' E 139°41'0 0.0
2017-Oct-14 15:30N 35°17' E 139°41'0 0.0
2017-Oct-14 14:59N 35°17' E 139°41'0 0.0
2017-Oct-14 14:30N 35°17' E 139°41'0 0.0
2017-Oct-14 13:57N 35°17' E 139°41'0 0.0
2017-Oct-14 13:30N 35°17' E 139°41'0 0.0
2017-Oct-14 13:00N 35°17' E 139°41'0 0.0
2017-Oct-14 12:30N 35°17' E 139°41'0 0.0
2017-Oct-14 12:00N 35°17' E 139°41'0 0.0
2017-Oct-14 11:30N 35°17' E 139°41'0 0.0
2017-Oct-14 11:00N 35°17' E 139°41'0 0.0
2017-Oct-14 10:28N 35°17' E 139°41'0 0.0
2017-Oct-14 09:54N 35°17' E 139°41'0 0.0
2017-Oct-14 09:26N 35°17' E 139°41'0 0.0
2017-Oct-14 08:59N 35°17' E 139°41'0 0.0
2017-Oct-14 08:30N 35°17' E 139°41'0 0.5
2017-Oct-14 08:01N 35°17' E 139°41'510.7
2017-Oct-14 07:30N 35°22' E 139°42'611.6
2017-Oct-14 07:00N 35°27' E 139°47'911.3
2017-Oct-14 06:13N 35°32' E 139°55'9 8.5
2017-Oct-14 05:08N 35°25' E 139°48'212.1
2017-Oct-14 05:00N 35°24' E 139°46'611.5
2017-Oct-14 04:31N 35°19' E 139°44'611.3
2017-Oct-14 04:00N 35°14' E 139°47'2 3.1
2017-Oct-14 03:31N 35°12' E 139°46'611.4
2017-Oct-14 03:01N 35°17' E 139°43'2 4.3
2017-Oct-14 02:30N 35°17' E 139°41'0 0.0
2017-Oct-14 02:01N 35°17' E 139°41'0 0.0
2017-Oct-14 01:30N 35°17' E 139°41'4 8.6
2017-Oct-14 01:01N 35°21' E 139°41'3 5.8
2017-Oct-14 00:30N 35°24' E 139°38'0 0.2
2017-Oct-14 00:00N 35°24' E 139°38'1 1.7
2017-Oct-13 23:30N 35°24' E 139°39'2 3.3
2017-Oct-13 23:00N 35°23' E 139°41'2 3.5
2017-Oct-13 22:30N 35°21' E 139°41'4 7.9
2017-Oct-13 22:00N 35°17' E 139°41'0 0.0
2017-Oct-13 21:30N 35°17' E 139°41'0 0.0
2017-Oct-13 21:00N 35°17' E 139°41'0 0.0
2017-Oct-13 20:30N 35°17' E 139°41'0 0.0
2017-Oct-13 20:00N 35°17' E 139°41'0 0.0
2017-Oct-13 19:30N 35°17' E 139°41'0 0.0
2017-Oct-13 19:00N 35°17' E 139°41'0 0.0
2017-Oct-13 18:30N 35°17' E 139°41'0 0.0
2017-Oct-13 18:00N 35°17' E 139°41'0 0.0
2017-Oct-13 17:30N 35°17' E 139°41'0 0.0
2017-Oct-13 17:00N 35°17' E 139°41'0 0.0
2017-Oct-13 16:30N 35°17' E 139°41'0 0.0
2017-Oct-13 16:00N 35°17' E 139°41'0 0.0
2017-Oct-13 15:30N 35°17' E 139°41'0 0.0
2017-Oct-13 15:00N 35°17' E 139°41'0 0.1
2017-Oct-13 14:30N 35°17' E 139°41'0 0.1
2017-Oct-13 14:00N 35°17' E 139°41'0 0.0
2017-Oct-13 13:30N 35°17' E 139°41'0 0.0
2017-Oct-13 13:00N 35°17' E 139°41'0 0.0
2017-Oct-13 12:30N 35°17' E 139°41'0 0.0
2017-Oct-13 12:00N 35°17' E 139°41'0 0.0
2017-Oct-13 11:30N 35°17' E 139°41'0 0.0
2017-Oct-13 11:00N 35°17' E 139°41'0 0.0
2017-Oct-13 10:30N 35°17' E 139°41'0 0.0
2017-Oct-13 10:00N 35°17' E 139°41'0 0.0
2017-Oct-13 09:30N 35°17' E 139°41'0 0.0
2017-Oct-13 09:00N 35°17' E 139°41'0 0.0
2017-Oct-13 08:30N 35°17' E 139°41'0 0.0
2017-Oct-13 08:00N 35°17' E 139°41'0 0.0
2017-Oct-13 07:30N 35°17' E 139°41'0 0.0
2017-Oct-13 07:00N 35°17' E 139°41'0 0.0
2017-Oct-13 06:30N 35°17' E 139°41'0 0.0
2017-Oct-13 06:00N 35°17' E 139°41'0 0.0
2017-Oct-13 05:30N 35°17' E 139°41'0 0.0
2017-Oct-13 05:00N 35°17' E 139°41'0 0.0
2017-Oct-13 04:30N 35°17' E 139°41'0 0.0
2017-Oct-13 04:00N 35°17' E 139°41'0 0.0
2017-Oct-13 03:30N 35°17' E 139°41'0 0.0
2017-Oct-13 03:00N 35°17' E 139°41'0 0.0
2017-Oct-13 02:30N 35°17' E 139°41'0 0.0
2017-Oct-13 02:00N 35°17' E 139°41'0 0.1
2017-Oct-13 01:30N 35°17' E 139°41'0 0.0
2017-Oct-13 01:00N 35°17' E 139°41'0 0.0
2017-Oct-13 00:30N 35°17' E 139°41'0 0.0
2017-Oct-12 23:59N 35°17' E 139°41'0 0.0
2017-Oct-12 23:30N 35°17' E 139°41'0 0.0
2017-Oct-12 23:00N 35°17' E 139°41'0 0.0
2017-Oct-12 22:30N 35°17' E 139°41'0 0.0
2017-Oct-12 22:00N 35°17' E 139°41'0 0.0
2017-Oct-12 21:30N 35°17' E 139°41'0 0.0
2017-Oct-12 21:00N 35°17' E 139°41'0 0.0
2017-Oct-12 20:30N 35°17' E 139°41'0 0.0
2017-Oct-12 20:00N 35°17' E 139°41'0 0.0
2017-Oct-12 19:30N 35°17' E 139°41'0 0.0
2017-Oct-12 19:00N 35°17' E 139°41'0 0.0
2017-Oct-12 18:30N 35°17' E 139°41'0 0.0
2017-Oct-12 18:00N 35°17' E 139°41'0 0.0
2017-Oct-12 17:30N 35°17' E 139°41'0 0.0
2017-Oct-12 17:00N 35°17' E 139°41'0 0.0
2017-Oct-12 16:30N 35°17' E 139°41'0 0.0
2017-Oct-12 16:00N 35°17' E 139°41'0 0.0
2017-Oct-12 15:30N 35°17' E 139°41'0 0.0
2017-Oct-12 15:00N 35°17' E 139°41'0 0.0
2017-Oct-12 14:30N 35°17' E 139°41'0 0.0
2017-Oct-12 14:00N 35°17' E 139°41'0 0.0
2017-Oct-12 13:30N 35°17' E 139°41'0 0.0
2017-Oct-12 13:00N 35°17' E 139°41'0 0.0
2017-Oct-12 12:30N 35°17' E 139°41'0 0.0
2017-Oct-12 12:00N 35°17' E 139°41'0 0.0
2017-Oct-12 11:30N 35°17' E 139°41'0 0.0
2017-Oct-12 11:00N 35°17' E 139°41'0 0.1
2017-Oct-12 10:30N 35°17' E 139°41'0 0.1
2017-Oct-12 10:00N 35°17' E 139°41'0 0.1
2017-Oct-12 09:30N 35°17' E 139°41'0 0.1
2017-Oct-12 09:00N 35°17' E 139°41'0 0.0
2017-Oct-12 08:30N 35°17' E 139°41'0 0.0
2017-Oct-12 08:00N 35°17' E 139°41'0 0.0
2017-Oct-12 07:30N 35°17' E 139°41'0 0.0
2017-Oct-12 07:00N 35°17' E 139°41'0 0.0
2017-Oct-12 06:30N 35°17' E 139°41'0 0.1
2017-Oct-12 06:00N 35°17' E 139°41'0 0.1
2017-Oct-12 05:30N 35°17' E 139°41'0 0.0
2017-Oct-12 05:00N 35°17' E 139°41'0 0.0
2017-Oct-12 04:30N 35°17' E 139°41'0 0.0
2017-Oct-12 04:00N 35°17' E 139°41'0 0.0
2017-Oct-12 03:30N 35°17' E 139°41'0 0.0
2017-Oct-12 03:00N 35°17' E 139°41'0 0.0
2017-Oct-12 02:30N 35°17' E 139°41'3 5.8
2017-Oct-12 02:00N 35°17' E 139°44'510.2
2017-Oct-12 01:30N 35°12' E 139°46'611.3
2017-Oct-12 01:00N 35°18' E 139°44'611.4
2017-Oct-12 00:30N 35°23' E 139°43'5 1.5
2017-Oct-11 20:50N 35°24' E 139°49'3 8.2
2017-Oct-11 20:30N 35°23' E 139°46'611.1
2017-Oct-11 19:59N 35°18' E 139°45'511.1
2017-Oct-11 19:30N 35°13' E 139°47'2 3.6
2017-Oct-11 19:00N 35°11' E 139°47'4 8.1
2017-Oct-11 18:30N 35°13' E 139°43'0 0.0
2017-Oct-11 17:59N 35°13' E 139°43'0 0.0
2017-Oct-11 17:30N 35°13' E 139°43'0 0.0
2017-Oct-11 17:00N 35°13' E 139°43'4 0.2
2017-Oct-10 23:55N 35°17' E 139°41'0 0.0
2017-Oct-10 23:26N 35°17' E 139°41'0 0.0
2017-Oct-10 22:55N 35°17' E 139°41'0 0.0
2017-Oct-10 22:25N 35°17' E 139°41'0 0.0
2017-Oct-10 22:00N 35°17' E 139°41'0 0.0
2017-Oct-10 21:30N 35°17' E 139°41'0 0.0
2017-Oct-10 21:00N 35°17' E 139°41'0 0.0
2017-Oct-10 20:30N 35°17' E 139°41'0 0.0
2017-Oct-10 19:57N 35°17' E 139°41'0 0.0
2017-Oct-10 19:28N 35°17' E 139°41'0 0.0
2017-Oct-10 18:59N 35°17' E 139°41'0 0.0
2017-Oct-10 18:30N 35°17' E 139°41'0 0.0
2017-Oct-10 17:53N 35°17' E 139°41'0 0.0
2017-Oct-10 17:28N 35°17' E 139°41'0 0.0
2017-Oct-10 17:00N 35°17' E 139°41'0 0.0
2017-Oct-10 16:29N 35°17' E 139°41'0 0.0
2017-Oct-10 16:01N 35°17' E 139°41'0 0.0
2017-Oct-10 15:30N 35°17' E 139°41'0 0.0
2017-Oct-10 15:01N 35°17' E 139°41'0 0.0
2017-Oct-10 14:01N 35°17' E 139°41'0 0.0
2017-Oct-10 13:31N 35°17' E 139°41'0 0.0
2017-Oct-10 13:01N 35°17' E 139°41'0 0.0
2017-Oct-10 12:31N 35°17' E 139°41'0 0.0
2017-Oct-10 12:01N 35°17' E 139°41'0 0.0
2017-Oct-10 11:31N 35°17' E 139°41'0 0.0
2017-Oct-10 10:59N 35°17' E 139°41'0 0.0
2017-Oct-10 10:31N 35°17' E 139°41'0 0.0
2017-Oct-10 10:00N 35°17' E 139°41'0 0.0
2017-Oct-10 09:30N 35°17' E 139°41'0 0.0
2017-Oct-10 08:59N 35°17' E 139°41'0 0.0
2017-Oct-10 08:30N 35°17' E 139°41'0 0.0
2017-Oct-10 08:01N 35°17' E 139°41'0 0.0
2017-Oct-10 07:29N 35°17' E 139°41'0 0.0
2017-Oct-10 07:01N 35°17' E 139°41'0 0.0
2017-Oct-10 06:31N 35°17' E 139°41'0 0.0
2017-Oct-10 06:01N 35°17' E 139°41'0 0.0
2017-Oct-10 05:31N 35°17' E 139°41'0 0.0
2017-Oct-10 05:00N 35°17' E 139°41'0 0.0
2017-Oct-10 04:31N 35°17' E 139°41'0 0.0
2017-Oct-10 04:01N 35°17' E 139°41'0 0.0
2017-Oct-10 03:31N 35°17' E 139°41'0 0.0
2017-Oct-10 03:01N 35°17' E 139°41'0 0.0
2017-Oct-10 02:31N 35°17' E 139°41'0 0.0
2017-Oct-10 02:01N 35°17' E 139°41'0 0.0
2017-Oct-10 01:31N 35°17' E 139°41'0 0.0
2017-Oct-10 01:01N 35°17' E 139°41'0 0.0
2017-Oct-10 00:31N 35°17' E 139°41'0 0.0
2017-Oct-10 00:01N 35°17' E 139°41'0 0.0
2017-Oct-09 23:31N 35°17' E 139°41'2 3.4
2017-Oct-09 23:01N 35°19' E 139°40'0 0.7
2017-Oct-09 22:31N 35°19' E 139°39'2 4.9
2017-Oct-09 22:00N 35°19' E 139°42'2 3.1
2017-Oct-09 21:30N 35°20' E 139°42'611.1
2017-Oct-09 20:59N 35°25' E 139°46'611.6
2017-Oct-09 20:31N 35°20' E 139°44'612.0
2017-Oct-09 20:00N 35°14' E 139°47'4 7.7
2017-Oct-09 19:30N 35°10' E 139°47'4 7.8
2017-Oct-09 19:00N 35°13' E 139°44'1 1.7
2017-Oct-09 18:30N 35°13' E 139°43'0 0.0
2017-Oct-09 18:00N 35°13' E 139°43'0 0.0
2017-Oct-09 17:30N 35°13' E 139°43'0 0.0
2017-Oct-09 17:00N 35°13' E 139°43'0 0.0
2017-Oct-09 16:30N 35°13' E 139°43'0 0.0
2017-Oct-09 16:00N 35°13' E 139°43'0 0.0
2017-Oct-09 15:30N 35°13' E 139°43'0 0.0
2017-Oct-09 15:00N 35°13' E 139°43'0 0.0
2017-Oct-09 14:30N 35°13' E 139°43'0 0.0
2017-Oct-09 14:00N 35°13' E 139°43'0 0.0
2017-Oct-09 13:30N 35°13' E 139°43'0 0.0
2017-Oct-09 13:00N 35°13' E 139°43'3 5.7
2017-Oct-09 12:30N 35°14' E 139°46'612.9
2017-Oct-09 12:00N 35°20' E 139°43'3 4.3
2017-Oct-09 11:19N 35°23' E 139°43'310.7
2017-Oct-09 11:00N 35°19' E 139°42'3 1.1
2017-Oct-09 08:42N 35°17' E 139°41'311.6
2017-Oct-09 08:27N 35°17' E 139°44'4 9.8
2017-Oct-09 08:00N 35°13' E 139°46'612.0
2017-Oct-09 07:30N 35°18' E 139°44'6 1.8
2017-Oct-09 04:08N 35°24' E 139°48'213.0
2017-Oct-09 03:58N 35°22' E 139°46'510.0
2017-Oct-09 03:31N 35°18' E 139°43'2 0.5
2017-Oct-08 23:14N 35°17' E 139°41'0 0.0
2017-Oct-08 21:00N 35°17' E 139°41'0 0.0
2017-Oct-08 20:30N 35°17' E 139°41'0 0.0
2017-Oct-08 20:00N 35°17' E 139°41'0 0.0
2017-Oct-08 19:30N 35°17' E 139°41'0 0.0
2017-Oct-08 19:00N 35°17' E 139°41'0 0.0
2017-Oct-08 18:30N 35°17' E 139°41'0 0.0
2017-Oct-08 18:00N 35°17' E 139°41'0 0.0
2017-Oct-08 17:30N 35°17' E 139°41'0 0.0
2017-Oct-08 17:00N 35°17' E 139°41'0 0.0
2017-Oct-08 16:30N 35°17' E 139°41'0 0.0
2017-Oct-08 16:00N 35°17' E 139°41'0 0.0
2017-Oct-08 15:30N 35°17' E 139°41'0 0.0
2017-Oct-08 15:00N 35°17' E 139°41'0 0.0
2017-Oct-08 14:30N 35°17' E 139°41'0 0.0
2017-Oct-08 14:00N 35°17' E 139°41'0 0.0
2017-Oct-08 13:30N 35°17' E 139°41'0 0.0
2017-Oct-08 13:00N 35°17' E 139°41'0 0.0
2017-Oct-08 12:30N 35°17' E 139°41'0 0.0
2017-Oct-08 12:00N 35°17' E 139°41'0 0.0
2017-Oct-08 11:30N 35°17' E 139°41'0 0.0
2017-Oct-08 11:00N 35°17' E 139°41'0 0.0
2017-Oct-08 10:30N 35°17' E 139°41'0 0.0
2017-Oct-08 10:00N 35°17' E 139°41'0 0.0
2017-Oct-08 09:30N 35°17' E 139°41'0 0.0
2017-Oct-08 09:00N 35°17' E 139°41'0 0.0
2017-Oct-08 08:30N 35°17' E 139°41'0 0.0
2017-Oct-08 08:00N 35°17' E 139°41'0 0.0
2017-Oct-08 07:30N 35°17' E 139°41'0 0.1
2017-Oct-08 07:00N 35°17' E 139°41'0 0.1
2017-Oct-08 06:30N 35°17' E 139°41'0 0.1
2017-Oct-08 06:00N 35°17' E 139°41'0 0.1
2017-Oct-08 05:30N 35°17' E 139°41'0 0.0
2017-Oct-08 05:00N 35°17' E 139°41'0 0.0
2017-Oct-08 04:30N 35°17' E 139°41'1 2.4
2017-Oct-08 04:01N 35°18' E 139°42'510.5
2017-Oct-08 03:30N 35°13' E 139°46'3 6.8
2017-Oct-08 03:00N 35°17' E 139°45'612.3
2017-Oct-08 02:30N 35°22' E 139°42'713.6
2017-Oct-08 02:00N 35°27' E 139°48'2 0.6
2017-Oct-07 23:07N 35°26' E 139°48'1 8.9
2017-Oct-07 22:59N 35°25' E 139°47'1 2.4
2017-Oct-07 22:30N 35°25' E 139°45'4 8.8
2017-Oct-07 22:00N 35°21' E 139°45'612.0
2017-Oct-07 21:29N 35°15' E 139°47'510.5
2017-Oct-07 21:00N 35°10' E 139°47'0 0.4
2017-Oct-07 20:30N 35°10' E 139°47'  

Dump ship's entire track history